Time;durP1;ratioP1;P1;durP2;ratioP2;P2;SDS_P1;SDS_P2;PMS_P1;PMS_P2;Temp;Humidity;BMP_temperature;BMP_pressure;BME280_temperature;BME280_humidity;BME280_pressure;Samples;Min_cycle;Max_cycle;Signal;HPM_P1;HPM_P2
2022/04/25 00:01:18;;;;;;;;;52.50;41.50;;;;;;;;5129897;27;8797;-50
2022/04/25 00:04:03;;;;;;;;;52.00;41.50;;;;;;;;5125800;27;8778;-49
2022/04/25 00:06:51;;;;;;;;;52.50;43.00;;;;;;;;5139260;27;8781;-49
2022/04/25 00:09:37;;;;;;;;;46.25;39.50;;;;;;;;5138955;27;8802;-49
2022/04/25 00:12:31;;;;;;;;;51.75;43.00;;;;;;;;5129682;27;8797;-50
2022/04/25 00:15:16;;;;;;;;;57.25;44.00;;;;;;;;5118448;27;8800;-50
2022/04/25 00:18:02;;;;;;;;;51.25;42.25;;;;;;;;5118185;27;8797;-49
2022/04/25 00:20:55;;;;;;;;;52.75;41.00;;;;;;;;5130714;27;8782;-50
2022/04/25 00:23:40;;;;;;;;;51.25;40.50;;;;;;;;5138486;27;8802;-49
2022/04/25 00:26:26;;;;;;;;;49.75;40.75;;;;;;;;5130287;27;9571;-48
2022/04/25 00:29:12;;;;;;;;;52.50;41.25;;;;;;;;5138792;27;8805;-48
2022/04/25 00:31:56;;;;;;;;;52.75;42.75;;;;;;;;5138878;27;8785;-50
2022/04/25 00:34:41;;;;;;;;;61.25;45.00;;;;;;;;5128172;27;8788;-48
2022/04/25 00:37:26;;;;;;;;;60.00;45.50;;;;;;;;5118179;27;8797;-48
2022/04/25 00:40:15;;;;;;;;;58.50;44.75;;;;;;;;5126550;27;8788;-52
2022/04/25 00:43:01;;;;;;;;;55.50;43.50;;;;;;;;5130734;27;8802;-49
2022/04/25 00:45:45;;;;;;;;;56.00;44.50;;;;;;;;5138279;27;8908;-49
2022/04/25 00:48:30;;;;;;;;;55.25;43.25;;;;;;;;5130485;27;8796;-47
2022/04/25 00:51:16;;;;;;;;;52.75;41.25;;;;;;;;5123264;27;8813;-50
2022/04/25 00:54:01;;;;;;;;;51.00;40.25;;;;;;;;5134849;27;9583;-51
2022/04/25 00:56:49;;;;;;;;;50.50;38.75;;;;;;;;5117760;27;8800;-50
2022/04/25 00:59:35;;;;;;;;;49.25;38.50;;;;;;;;5117583;27;8809;-51
2022/04/25 01:02:21;;;;;;;;;49.25;40.00;;;;;;;;5117718;27;8793;-49
2022/04/25 01:05:06;;;;;;;;;46.75;37.00;;;;;;;;5129818;27;8830;-52
2022/04/25 01:07:52;;;;;;;;;47.75;37.50;;;;;;;;5127851;27;8930;-48
2022/04/25 01:10:39;;;;;;;;;48.75;38.75;;;;;;;;5128998;27;8773;-49
2022/04/25 01:13:39;;;;;;;;;48.75;38.75;;;;;;;;5117448;27;8769;-49
2022/04/25 01:16:25;;;;;;;;;44.75;37.25;;;;;;;;5117319;27;8793;-51
2022/04/25 01:19:11;;;;;;;;;56.25;41.25;;;;;;;;5118862;27;8780;-51
2022/04/25 01:21:55;;;;;;;;;48.75;38.75;;;;;;;;5128511;27;8769;-52
2022/04/25 01:27:52;;;;;;;;;47.00;38.75;;;;;;;;5121538;27;8832;-52
2022/04/25 01:30:38;;;;;;;;;51.75;39.50;;;;;;;;5117345;27;8781;-50
2022/04/25 01:33:24;;;;;;;;;50.75;40.25;;;;;;;;5117301;27;8773;-55
2022/04/25 01:36:08;;;;;;;;;46.50;38.75;;;;;;;;5135070;27;9519;-47
2022/04/25 01:38:55;;;;;;;;;47.00;38.25;;;;;;;;5121509;27;8769;-49
2022/04/25 01:41:42;;;;;;;;;49.50;39.25;;;;;;;;5117066;27;8776;-51
2022/04/25 01:44:30;;;;;;;;;51.00;40.50;;;;;;;;5125508;27;9569;-47
2022/04/25 01:47:14;;;;;;;;;41.50;36.50;;;;;;;;5118006;27;8788;-47
2022/04/25 01:50:01;;;;;;;;;49.25;40.50;;;;;;;;5130403;27;8789;-51
2022/04/25 01:52:49;;;;;;;;;48.75;38.75;;;;;;;;5116987;27;8781;-49
2022/04/25 01:55:36;;;;;;;;;48.50;40.75;;;;;;;;5137445;27;8782;-50
2022/04/25 01:58:20;;;;;;;;;49.75;39.50;;;;;;;;5137179;27;8805;-48
2022/04/25 02:01:09;;;;;;;;;50.75;38.75;;;;;;;;5137406;27;8786;-47
2022/04/25 02:03:54;;;;;;;;;49.75;39.00;;;;;;;;5137603;27;8762;-49
2022/04/25 02:06:38;;;;;;;;;50.75;38.50;;;;;;;;5137080;27;8794;-52
2022/04/25 02:09:25;;;;;;;;;51.75;40.75;;;;;;;;5127874;27;8812;-50
2022/04/25 02:12:10;;;;;;;;;50.50;40.75;;;;;;;;5116782;27;8887;-50
2022/04/25 02:14:54;;;;;;;;;50.50;40.25;;;;;;;;5125547;27;8805;-51
2022/04/25 02:17:42;;;;;;;;;49.25;39.50;;;;;;;;5118419;27;8808;-52
2022/04/25 02:20:26;;;;;;;;;51.00;40.00;;;;;;;;5136237;27;8782;-52
2022/04/25 02:23:12;;;;;;;;;47.75;38.75;;;;;;;;5137225;27;8794;-52
2022/04/25 02:26:01;;;;;;;;;49.00;39.00;;;;;;;;5137469;27;8789;-50
2022/04/25 02:28:49;;;;;;;;;45.75;37.75;;;;;;;;5136973;27;8810;-51
2022/04/25 02:31:44;;;;;;;;;39.75;33.25;;;;;;;;5137602;27;8836;-48
2022/04/25 02:34:31;;;;;;;;;41.75;35.00;;;;;;;;5116551;27;8796;-49
2022/04/25 02:37:30;;;;;;;;;46.50;37.25;;;;;;;;5116835;27;8781;-49
2022/04/25 02:40:16;;;;;;;;;45.00;35.50;;;;;;;;5117093;27;8812;-49
2022/04/25 02:43:01;;;;;;;;;44.25;34.25;;;;;;;;5137480;27;8766;-46
2022/04/25 02:45:47;;;;;;;;;42.75;32.25;;;;;;;;5120100;27;8804;-50
2022/04/25 02:48:32;;;;;;;;;43.25;32.00;;;;;;;;5120378;27;8816;-48
2022/04/25 02:51:19;;;;;;;;;41.25;30.50;;;;;;;;5120071;27;8788;-48
2022/04/25 02:54:06;;;;;;;;;39.50;31.50;;;;;;;;5122101;27;8781;-49
2022/04/25 02:56:53;;;;;;;;;33.50;29.25;;;;;;;;5140365;27;8790;-49
2022/04/25 02:59:50;;;;;;;;;38.50;30.25;;;;;;;;5140604;27;8790;-47
2022/04/25 03:02:53;;;;;;;;;35.75;28.50;;;;;;;;5140496;27;8782;-46
2022/04/25 03:05:40;;;;;;;;;35.50;29.00;;;;;;;;5134736;27;8774;-49
2022/04/25 03:08:26;;;;;;;;;36.00;31.25;;;;;;;;5140334;27;8798;-50
2022/04/25 03:11:12;;;;;;;;;32.50;26.75;;;;;;;;5129532;27;8793;-49
2022/04/25 03:14:06;;;;;;;;;28.50;26.25;;;;;;;;5119380;27;8800;-49
2022/04/25 03:17:05;;;;;;;;;33.50;29.75;;;;;;;;5119667;27;8792;-49
2022/04/25 03:19:52;;;;;;;;;30.25;27.75;;;;;;;;5125655;27;8790;-50
2022/04/25 03:22:38;;;;;;;;;35.50;29.25;;;;;;;;5126494;27;8784;-51
2022/04/25 03:25:23;;;;;;;;;37.75;26.75;;;;;;;;5130795;27;9589;-49
2022/04/25 03:28:11;;;;;;;;;28.75;27.50;;;;;;;;5121916;27;8800;-49
2022/04/25 03:30:58;;;;;;;;;32.25;28.00;;;;;;;;5119231;27;9549;-49
2022/04/25 03:33:44;;;;;;;;;27.50;26.50;;;;;;;;5119238;27;8879;-52
2022/04/25 03:36:31;;;;;;;;;36.00;28.50;;;;;;;;5139369;27;9561;-51
2022/04/25 03:39:16;;;;;;;;;42.00;32.00;;;;;;;;5139648;27;8797;-50
2022/04/25 03:42:01;;;;;;;;;35.75;30.75;;;;;;;;5139748;27;8801;-50
2022/04/25 03:44:49;;;;;;;;;40.25;33.25;;;;;;;;5138451;27;9569;-47
2022/04/25 03:47:33;;;;;;;;;44.00;34.50;;;;;;;;5119125;27;8808;-49
2022/04/25 03:50:19;;;;;;;;;44.00;36.75;;;;;;;;5119365;27;8789;-52
2022/04/25 03:53:09;;;;;;;;;45.50;38.00;;;;;;;;5139198;27;8798;-49
2022/04/25 03:58:56;;;;;;;;;46.50;38.00;;;;;;;;5139487;27;8782;-50
2022/04/25 04:01:44;;;;;;;;;61.75;48.00;;;;;;;;5139134;27;8790;-50
2022/04/25 04:04:37;;;;;;;;;57.00;42.75;;;;;;;;5139314;27;8781;-49
2022/04/25 04:07:24;;;;;;;;;57.50;45.25;;;;;;;;5139241;27;8771;-51
2022/04/25 04:10:19;;;;;;;;;62.25;46.75;;;;;;;;5118478;27;8831;-47
2022/04/25 04:13:08;;;;;;;;;58.75;44.00;;;;;;;;5118468;27;8899;-49
2022/04/25 04:16:05;;;;;;;;;52.25;40.75;;;;;;;;5118079;27;8789;-51
2022/04/25 04:18:56;;;;;;;;;53.25;40.75;;;;;;;;5118376;27;8789;-47
2022/04/25 04:21:41;;;;;;;;;72.75;59.00;;;;;;;;5118239;27;8772;-50
2022/04/25 04:24:51;;;;;;;;;60.50;46.50;;;;;;;;5118299;27;8800;-49
2022/04/25 04:27:40;;;;;;;;;64.50;52.25;;;;;;;;5118031;27;8788;-49
2022/04/25 04:30:25;;;;;;;;;59.75;47.25;;;;;;;;5118210;27;8800;-50
2022/04/25 04:33:09;;;;;;;;;77.50;69.25;;;;;;;;5118266;27;8788;-50
2022/04/25 04:36:30;;;;;;;;;64.75;48.50;;;;;;;;5126487;27;9654;-51
2022/04/25 04:39:08;;;;;;;;;55.25;44.50;;;;;;;;5117795;27;9770;-52
2022/04/25 04:41:53;;;;;;;;;55.75;44.25;;;;;;;;5118366;27;8788;-51
2022/04/25 04:44:43;;;;;;;;;57.00;44.75;;;;;;;;5138576;27;9538;-50
2022/04/25 04:47:34;;;;;;;;;53.00;41.75;;;;;;;;5132982;27;8781;-50
2022/04/25 04:50:20;;;;;;;;;56.75;44.00;;;;;;;;5121850;27;8782;-49
2022/04/25 04:53:19;;;;;;;;;60.00;47.50;;;;;;;;5138451;27;8782;-52
2022/04/25 04:56:05;;;;;;;;;53.25;43.00;;;;;;;;5119518;27;9552;-52
2022/04/25 04:58:51;;;;;;;;;59.00;47.50;;;;;;;;5117467;27;8781;-50
2022/04/25 05:01:38;;;;;;;;;57.75;45.50;;;;;;;;5123046;27;8782;-49
2022/04/25 05:04:31;;;;;;;;;53.50;44.00;;;;;;;;5137330;27;8794;-49
2022/04/25 05:07:17;;;;;;;;;53.00;43.00;;;;;;;;5137806;27;8786;-51
2022/04/25 05:10:03;;;;;;;;;57.50;44.25;;;;;;;;5138203;27;8794;-49
2022/04/25 05:12:51;;;;;;;;;57.00;42.50;;;;;;;;5137921;27;8952;-50
2022/04/25 05:15:45;;;;;;;;;51.50;41.75;;;;;;;;5138233;27;8790;-51
2022/04/25 05:18:38;;;;;;;;;43.75;33.00;;;;;;;;5126331;27;8797;-47
2022/04/25 05:21:23;;;;;;;;;33.25;29.50;;;;;;;;5117129;27;8793;-50
2022/04/25 05:24:11;;;;;;;;;28.00;20.75;;;;;;;;5116914;27;8832;-51
2022/04/25 05:27:00;;;;;;;;;21.00;18.25;;;;;;;;5117305;27;8789;-50
2022/04/25 05:29:50;;;;;;;;;21.75;18.50;;;;;;;;5117607;27;9643;-49
2022/04/25 05:32:49;;;;;;;;;16.25;14.75;;;;;;;;5119616;27;8781;-48
2022/04/25 05:35:41;;;;;;;;;20.25;16.25;;;;;;;;5136479;27;8805;-49
2022/04/25 05:38:25;;;;;;;;;17.25;17.25;;;;;;;;5128039;27;8789;-48
2022/04/25 05:41:11;;;;;;;;;21.00;17.25;;;;;;;;5132721;27;8802;-49
2022/04/25 05:43:55;;;;;;;;;22.25;15.50;;;;;;;;5137801;27;8782;-50
2022/04/25 05:46:41;;;;;;;;;18.50;14.75;;;;;;;;5137675;27;9545;-50
2022/04/25 05:52:34;;;;;;;;;18.25;15.00;;;;;;;;5137346;27;8852;-52
2022/04/25 05:55:20;;;;;;;;;19.25;12.75;;;;;;;;5137895;27;8774;-51
2022/04/25 05:58:06;;;;;;;;;18.00;15.00;;;;;;;;5137786;27;8786;-52
2022/04/25 06:01:05;;;;;;;;;20.00;18.00;;;;;;;;5137570;27;8766;-50
2022/04/25 06:03:50;;;;;;;;;21.00;18.75;;;;;;;;5135439;27;8798;-49
2022/04/25 06:06:36;;;;;;;;;32.50;21.00;;;;;;;;5117115;27;8789;-50
2022/04/25 06:09:25;;;;;;;;;23.50;18.50;;;;;;;;5122777;27;9545;-50
2022/04/25 06:12:09;;;;;;;;;23.50;22.75;;;;;;;;5137523;27;8774;-51
2022/04/25 06:14:55;;;;;;;;;23.50;20.00;;;;;;;;5138579;27;8786;-52
2022/04/25 06:17:40;;;;;;;;;19.50;19.50;;;;;;;;5141447;27;8782;-50
2022/04/25 06:20:30;;;;;;;;;30.00;23.50;;;;;;;;5141387;27;8817;-51
2022/04/25 06:23:18;;;;;;;;;26.25;22.75;;;;;;;;5133143;27;8783;-49
2022/04/25 06:26:06;;;;;;;;;25.00;23.75;;;;;;;;5140698;27;8786;-48
2022/04/25 06:29:04;;;;;;;;;27.25;21.50;;;;;;;;5140808;27;8798;-49
2022/04/25 06:31:52;;;;;;;;;29.50;26.00;;;;;;;;5141405;27;8893;-51
2022/04/25 06:34:38;;;;;;;;;32.75;24.75;;;;;;;;5126339;27;8789;-50
2022/04/25 06:37:25;;;;;;;;;30.75;23.50;;;;;;;;5120587;27;8780;-52
2022/04/25 06:40:10;;;;;;;;;32.00;28.25;;;;;;;;5120003;27;8785;-49
2022/04/25 06:42:55;;;;;;;;;30.75;26.25;;;;;;;;5128250;27;8786;-51
2022/04/25 06:45:43;;;;;;;;;31.75;24.00;;;;;;;;5140854;27;9592;-50
2022/04/25 06:48:28;;;;;;;;;34.25;30.00;;;;;;;;5140788;27;9524;-50
2022/04/25 06:51:13;;;;;;;;;39.75;30.50;;;;;;;;5139069;27;8774;-51
2022/04/25 06:53:59;;;;;;;;;30.75;27.00;;;;;;;;5128112;27;8822;-51
2022/04/25 06:56:45;;;;;;;;;46.50;36.75;;;;;;;;5135266;27;8781;-50
2022/04/25 06:59:29;;;;;;;;;56.00;41.75;;;;;;;;5130521;27;8794;-50
2022/04/25 07:02:15;;;;;;;;;47.00;35.50;;;;;;;;5131073;27;8789;-52
2022/04/25 07:05:10;;;;;;;;;32.75;29.00;;;;;;;;5119827;27;9670;-51
2022/04/25 07:07:56;;;;;;;;;34.25;30.00;;;;;;;;5119594;27;8797;-51
2022/04/25 07:10:55;;;;;;;;;36.50;28.25;;;;;;;;5119714;27;8780;-52
2022/04/25 07:14:02;;;;;;;;;37.50;29.25;;;;;;;;5125260;27;8797;-50
2022/04/25 07:17:08;;;;;;;;;30.75;27.50;;;;;;;;5119763;27;8781;-48
2022/04/25 07:20:17;;;;;;;;;29.50;26.75;;;;;;;;5124576;27;8802;-51
2022/04/25 07:29:42;;;;;;;;;31.00;24.50;;;;;;;;5138617;27;8814;-52
2022/04/25 07:32:40;;;;;;;;;33.25;23.00;;;;;;;;5140006;27;8786;-50
2022/04/25 07:35:24;;;;;;;;;20.75;19.25;;;;;;;;5140275;27;8786;-50
2022/04/25 07:38:10;;;;;;;;;16.00;12.75;;;;;;;;5140037;27;8790;-50
2022/04/25 07:40:59;;;;;;;;;16.75;11.50;;;;;;;;5139920;27;8778;-50
2022/04/25 07:43:46;;;;;;;;;11.75;10.25;;;;;;;;5138120;27;8786;-50
2022/04/25 07:46:33;;;;;;;;;11.25;10.75;;;;;;;;5119278;27;8781;-50
2022/04/25 07:49:21;;;;;;;;;7.00;4.50;;;;;;;;5133639;27;8798;-51
2022/04/25 07:52:09;;;;;;;;;8.25;2.75;;;;;;;;5139814;27;8810;-50
2022/04/25 07:55:23;;;;;;;;;4.25;2.00;;;;;;;;5130819;27;8806;-49
2022/04/25 07:58:08;;;;;;;;;2.75;1.75;;;;;;;;5127443;27;8838;-51
2022/04/25 08:01:11;;;;;;;;;5.00;3.25;;;;;;;;5120585;27;8796;-53
2022/04/25 08:04:05;;;;;;;;;8.25;3.50;;;;;;;;5139149;27;8798;-51
2022/04/25 08:07:01;;;;;;;;;7.75;1.25;;;;;;;;5139584;27;8786;-52
2022/04/25 08:09:53;;;;;;;;;9.50;2.00;;;;;;;;5139317;27;8801;-49
2022/04/25 08:19:09;;;;;;;;;1.75;1.75;;;;;;;;5138766;27;8779;-53
2022/04/25 08:21:54;;;;;;;;;6.75;4.00;;;;;;;;5139233;27;8778;-49
2022/04/25 08:24:41;;;;;;;;;3.75;1.50;;;;;;;;5125807;27;8805;-50
2022/04/25 08:27:36;;;;;;;;;5.75;2.00;;;;;;;;5118422;27;8780;-51
2022/04/25 08:30:21;;;;;;;;;4.75;2.00;;;;;;;;5118160;27;8918;-49
2022/04/25 08:33:08;;;;;;;;;6.75;2.00;;;;;;;;5118379;27;9568;-50
2022/04/25 08:35:53;;;;;;;;;2.50;2.50;;;;;;;;5124214;27;8758;-52
2022/04/25 08:38:39;;;;;;;;;7.00;3.50;;;;;;;;5138766;27;8782;-52
2022/04/25 08:41:32;;;;;;;;;5.75;3.25;;;;;;;;5136876;27;8908;-51
2022/04/25 08:44:19;;;;;;;;;9.50;4.25;;;;;;;;5126819;27;8786;-51
2022/04/25 08:47:08;;;;;;;;;5.25;2.00;;;;;;;;5123032;27;8777;-52
2022/04/25 08:49:58;;;;;;;;;3.75;0.75;;;;;;;;5118129;27;8800;-50
2022/04/25 08:52:45;;;;;;;;;7.75;4.00;;;;;;;;5118206;27;8785;-50
2022/04/25 08:55:34;;;;;;;;;4.25;1.50;;;;;;;;5117532;27;8804;-52
2022/04/25 08:58:56;;;;;;;;;9.00;3.75;;;;;;;;5136292;27;8786;-49
2022/04/25 09:01:45;;;;;;;;;5.00;2.50;;;;;;;;5137865;27;8809;-51
2022/04/25 09:04:50;;;;;;;;;7.50;4.25;;;;;;;;5138263;27;8758;-50
2022/04/25 09:07:37;;;;;;;;;7.00;5.25;;;;;;;;5137984;27;8785;-51
2022/04/25 09:10:24;;;;;;;;;7.50;3.75;;;;;;;;5138058;27;8775;-47
2022/04/25 09:13:09;;;;;;;;;5.00;2.25;;;;;;;;5138434;27;8766;-49
2022/04/25 09:15:55;;;;;;;;;4.25;2.50;;;;;;;;5134422;27;8780;-48
2022/04/25 09:18:40;;;;;;;;;5.50;4.00;;;;;;;;5118645;27;9572;-49
2022/04/25 09:21:52;;;;;;;;;4.75;1.50;;;;;;;;5137795;27;8790;-49
2022/04/25 09:25:01;;;;;;;;;3.50;2.75;;;;;;;;5137721;27;8793;-51
2022/04/25 09:28:11;;;;;;;;;7.00;3.25;;;;;;;;5129117;27;8769;-51
2022/04/25 09:31:00;;;;;;;;;7.00;3.00;;;;;;;;5137834;27;8785;-49
2022/04/25 09:33:44;;;;;;;;;4.50;3.00;;;;;;;;5137666;27;9570;-51
2022/04/25 09:36:48;;;;;;;;;5.75;2.75;;;;;;;;5130926;27;8800;-50
2022/04/25 09:39:33;;;;;;;;;5.25;4.75;;;;;;;;5125118;27;8770;-52
2022/04/25 09:42:33;;;;;;;;;5.25;4.25;;;;;;;;5124070;27;8780;-52
2022/04/25 09:45:27;;;;;;;;;4.00;2.50;;;;;;;;5125018;27;8788;-51
2022/04/25 09:48:23;;;;;;;;;2.75;2.00;;;;;;;;5117204;27;8943;-49
2022/04/25 09:51:12;;;;;;;;;15.75;10.75;;;;;;;;5120747;27;8772;-49
2022/04/25 09:53:58;;;;;;;;;2.75;0.75;;;;;;;;5120919;27;8789;-51
2022/04/25 09:56:43;;;;;;;;;5.75;1.50;;;;;;;;5121315;27;8801;-49
2022/04/25 09:59:44;;;;;;;;;4.00;2.00;;;;;;;;5130106;27;8792;-51
2022/04/25 10:02:38;;;;;;;;;5.25;1.75;;;;;;;;5121339;27;8792;-48
2022/04/25 10:05:23;;;;;;;;;2.00;2.00;;;;;;;;5121334;27;8788;-51
2022/04/25 10:08:08;;;;;;;;;2.00;1.25;;;;;;;;5140054;27;8809;-51
2022/04/25 10:10:53;;;;;;;;;3.25;1.75;;;;;;;;5140073;27;8785;-50
2022/04/25 10:13:45;;;;;;;;;5.75;1.25;;;;;;;;5121078;27;9555;-49
2022/04/25 10:16:31;;;;;;;;;1.50;0.50;;;;;;;;5126206;27;8762;-52
2022/04/25 10:19:21;;;;;;;;;3.00;1.00;;;;;;;;5138575;27;8800;-49
2022/04/25 10:22:07;;;;;;;;;0.25;0.00;;;;;;;;5130521;27;8762;-49
2022/04/25 10:24:55;;;;;;;;;6.25;3.00;;;;;;;;5141153;27;8789;-50
2022/04/25 10:27:42;;;;;;;;;5.25;2.00;;;;;;;;5141402;27;8774;-49
2022/04/25 10:30:36;;;;;;;;;1.00;1.00;;;;;;;;5137568;27;8772;-50
2022/04/25 10:33:23;;;;;;;;;2.75;1.00;;;;;;;;5120533;27;8776;-50
2022/04/25 10:36:27;;;;;;;;;2.00;2.00;;;;;;;;5119345;27;8777;-50
2022/04/25 10:39:18;;;;;;;;;1.75;1.75;;;;;;;;5120256;27;8800;-50
2022/04/25 10:45:07;;;;;;;;;2.25;2.00;;;;;;;;5120704;27;8780;-49
2022/04/25 10:48:08;;;;;;;;;2.50;1.00;;;;;;;;5126954;27;8778;-52
2022/04/25 10:51:12;;;;;;;;;0.75;0.75;;;;;;;;5140937;27;8793;-51
2022/04/25 10:54:00;;;;;;;;;3.50;1.25;;;;;;;;5140617;27;9548;-50
2022/04/25 10:57:20;;;;;;;;;1.50;1.00;;;;;;;;5140645;27;8793;-50
2022/04/25 11:00:27;;;;;;;;;3.00;1.75;;;;;;;;5081846;28;8795;-49
2022/04/25 11:03:33;;;;;;;;;2.50;0.75;;;;;;;;5136446;27;8806;-48
2022/04/25 11:06:26;;;;;;;;;1.75;0.00;;;;;;;;5096803;28;8915;-50
2022/04/25 11:09:31;;;;;;;;;3.00;1.25;;;;;;;;5136144;27;8821;-49
2022/04/25 11:12:17;;;;;;;;;1.00;1.00;;;;;;;;5137928;27;9588;-49
2022/04/25 11:15:10;;;;;;;;;1.50;1.00;;;;;;;;5138014;27;8804;-53
2022/04/25 11:18:12;;;;;;;;;2.75;1.00;;;;;;;;5138158;27;8786;-52
2022/04/25 11:20:58;;;;;;;;;1.50;1.00;;;;;;;;5137889;27;8810;-50
2022/04/25 11:23:45;;;;;;;;;3.75;0.25;;;;;;;;5137583;27;9579;-52
2022/04/25 11:26:36;;;;;;;;;4.25;1.75;;;;;;;;5137129;27;8794;-52
2022/04/25 11:29:22;;;;;;;;;3.25;1.75;;;;;;;;5137789;27;8812;-52
2022/04/25 11:32:25;;;;;;;;;3.25;1.25;;;;;;;;5137889;27;8789;-49
2022/04/25 11:35:11;;;;;;;;;4.25;1.00;;;;;;;;5138000;27;9559;-51
2022/04/25 11:37:58;;;;;;;;;1.25;1.25;;;;;;;;5137729;27;8790;-50
2022/04/25 11:40:46;;;;;;;;;5.50;3.25;;;;;;;;5137392;27;8792;-52
2022/04/25 11:43:35;;;;;;;;;1.00;0.00;;;;;;;;5136772;27;8781;-49
2022/04/25 11:46:46;;;;;;;;;7.00;2.25;;;;;;;;5137124;27;8777;-47
2022/04/25 11:49:37;;;;;;;;;5.50;2.50;;;;;;;;5137281;27;9541;-50
2022/04/25 11:52:22;;;;;;;;;6.00;3.75;;;;;;;;5137282;27;8778;-51
2022/04/25 11:55:12;;;;;;;;;4.25;0.75;;;;;;;;5144815;27;8772;-53
2022/04/25 11:57:58;;;;;;;;;5.75;3.00;;;;;;;;5137091;27;8773;-53
2022/04/25 12:00:45;;;;;;;;;4.50;1.25;;;;;;;;5137212;27;9571;-54
2022/04/25 12:03:38;;;;;;;;;5.25;2.00;;;;;;;;5128057;27;8737;-54
2022/04/25 12:06:22;;;;;;;;;1.25;0.50;;;;;;;;5133499;27;8837;-50
2022/04/25 12:15:40;;;;;;;;;4.00;0.50;;;;;;;;5139183;27;9664;-54
2022/04/25 12:18:49;;;;;;;;;1.00;0.00;;;;;;;;5119337;27;8793;-53
2022/04/25 12:21:37;;;;;;;;;0.25;0.25;;;;;;;;5118370;27;8781;-52
2022/04/25 12:24:23;;;;;;;;;8.25;4.00;;;;;;;;5125180;27;8790;-55
2022/04/25 12:30:45;;;;;;;;;2.75;1.50;;;;;;;;5127633;27;8812;-54
2022/04/25 12:33:34;;;;;;;;;3.50;1.50;;;;;;;;5130816;27;9004;-54
2022/04/25 12:36:37;;;;;;;;;3.50;0.25;;;;;;;;5138782;27;8798;-53
2022/04/25 12:39:24;;;;;;;;;1.50;0.00;;;;;;;;5138453;27;8798;-53
2022/04/25 12:42:09;;;;;;;;;2.75;1.00;;;;;;;;5139007;27;8868;-53
2022/04/25 12:44:57;;;;;;;;;1.75;0.25;;;;;;;;5124679;27;8821;-53
2022/04/25 12:47:46;;;;;;;;;1.25;0.75;;;;;;;;5136532;27;8793;-53
2022/04/25 12:50:46;;;;;;;;;0.50;0.00;;;;;;;;5137544;27;8786;-54
2022/04/25 12:53:40;;;;;;;;;2.00;0.00;;;;;;;;5138849;27;8778;-54
2022/04/25 12:56:25;;;;;;;;;3.00;0.50;;;;;;;;5138629;27;8779;-53
2022/04/25 12:59:11;;;;;;;;;3.50;1.25;;;;;;;;5132609;27;8793;-55
2022/04/25 13:02:12;;;;;;;;;5.00;0.00;;;;;;;;5126735;27;8792;-54
2022/04/25 13:05:03;;;;;;;;;1.50;1.00;;;;;;;;5118021;27;8792;-55
2022/04/25 13:08:03;;;;;;;;;4.25;1.75;;;;;;;;5126758;27;8792;-55
2022/04/25 13:10:48;;;;;;;;;2.00;0.00;;;;;;;;5125343;27;9743;-54
2022/04/25 13:13:37;;;;;;;;;1.50;1.50;;;;;;;;5117698;27;8789;-51
2022/04/25 13:16:22;;;;;;;;;4.25;2.00;;;;;;;;5120430;27;8925;-54
2022/04/25 13:19:08;;;;;;;;;1.25;1.25;;;;;;;;5129564;27;8806;-55
2022/04/25 13:21:53;;;;;;;;;6.50;1.50;;;;;;;;5132485;27;8729;-53
2022/04/25 13:24:39;;;;;;;;;2.25;1.00;;;;;;;;5116875;27;8797;-53
2022/04/25 13:27:23;;;;;;;;;1.00;0.00;;;;;;;;5117488;27;8785;-53
2022/04/25 13:30:08;;;;;;;;;2.25;1.50;;;;;;;;5117666;27;8824;-55
2022/04/25 13:32:55;;;;;;;;;4.00;1.75;;;;;;;;5117645;27;8797;-53
2022/04/25 13:35:39;;;;;;;;;3.50;2.00;;;;;;;;5124842;27;8812;-55
2022/04/25 13:38:24;;;;;;;;;3.25;1.25;;;;;;;;5125985;27;8813;-54
2022/04/25 13:41:08;;;;;;;;;3.50;1.00;;;;;;;;5117624;27;8785;-54
2022/04/25 13:43:52;;;;;;;;;3.50;0.00;;;;;;;;5129932;27;8794;-55
2022/04/25 13:46:37;;;;;;;;;5.25;1.25;;;;;;;;5125511;27;8776;-56
2022/04/25 13:49:21;;;;;;;;;4.75;1.25;;;;;;;;5133116;27;8813;-54
2022/04/25 13:52:06;;;;;;;;;6.75;3.00;;;;;;;;5123112;27;8785;-53
2022/04/25 13:54:50;;;;;;;;;6.00;2.50;;;;;;;;5117386;27;8780;-54
2022/04/25 13:57:36;;;;;;;;;3.00;1.25;;;;;;;;5117473;27;8765;-53
2022/04/25 14:00:20;;;;;;;;;1.00;1.00;;;;;;;;5117519;28;8788;-55
2022/04/25 14:03:11;;;;;;;;;6.50;1.00;;;;;;;;5127545;27;8797;-52
2022/04/25 14:05:55;;;;;;;;;1.25;0.75;;;;;;;;5120684;27;8790;-53
2022/04/25 14:08:39;;;;;;;;;3.00;0.75;;;;;;;;5136739;27;8809;-53
2022/04/25 14:11:25;;;;;;;;;4.00;0.50;;;;;;;;5137861;27;8766;-54
2022/04/25 14:14:09;;;;;;;;;3.50;1.25;;;;;;;;5124311;27;8761;-55
2022/04/25 14:16:54;;;;;;;;;2.25;1.25;;;;;;;;5117038;27;8792;-54
2022/04/25 14:19:38;;;;;;;;;0.50;0.50;;;;;;;;5115858;27;9035;-55
2022/04/25 14:22:23;;;;;;;;;2.75;1.50;;;;;;;;5131657;27;8762;-54
2022/04/25 14:25:08;;;;;;;;;1.75;0.75;;;;;;;;5120420;27;8786;-55
2022/04/25 14:27:57;;;;;;;;;3.50;1.75;;;;;;;;5116934;27;8789;-55
2022/04/25 14:30:42;;;;;;;;;3.25;1.00;;;;;;;;5122845;27;8822;-54
2022/04/25 14:33:26;;;;;;;;;4.75;2.00;;;;;;;;5117027;27;8792;-54
2022/04/25 14:36:10;;;;;;;;;3.00;1.25;;;;;;;;5127757;27;8785;-55
2022/04/25 14:38:55;;;;;;;;;0.75;0.25;;;;;;;;5131546;27;8790;-54
2022/04/25 14:41:39;;;;;;;;;4.25;1.75;;;;;;;;5132904;27;8797;-54
2022/04/25 14:44:24;;;;;;;;;1.75;0.25;;;;;;;;5135587;27;8778;-54
2022/04/25 14:47:09;;;;;;;;;3.25;1.00;;;;;;;;5141556;27;8837;-53
2022/04/25 14:55:58;;;;;;;;;4.25;1.00;;;;;;;;5132429;27;9560;-55
2022/04/25 14:58:43;;;;;;;;;5.75;1.25;;;;;;;;5141153;27;8786;-54
2022/04/25 15:01:27;;;;;;;;;3.75;2.00;;;;;;;;5135287;27;8781;-55
2022/04/25 15:04:12;;;;;;;;;1.75;0.00;;;;;;;;5120578;27;8811;-53
2022/04/25 15:06:56;;;;;;;;;1.25;1.25;;;;;;;;5120159;27;8777;-55
2022/04/25 15:09:42;;;;;;;;;3.25;2.00;;;;;;;;5120274;27;8801;-54
2022/04/25 15:12:27;;;;;;;;;4.50;1.75;;;;;;;;5120315;27;8784;-56
2022/04/25 15:15:12;;;;;;;;;2.00;2.00;;;;;;;;5131812;27;8778;-54
2022/04/25 15:17:56;;;;;;;;;2.75;2.00;;;;;;;;5140667;27;8782;-55
2022/04/25 15:20:40;;;;;;;;;5.25;2.75;;;;;;;;5133905;27;8780;-55
2022/04/25 15:23:25;;;;;;;;;4.75;1.25;;;;;;;;5119852;27;8816;-54
2022/04/25 15:26:09;;;;;;;;;5.00;1.25;;;;;;;;5136877;27;9577;-54
2022/04/25 15:28:54;;;;;;;;;2.75;0.75;;;;;;;;5119956;27;8809;-53
2022/04/25 15:31:38;;;;;;;;;2.75;1.25;;;;;;;;5119733;27;8797;-53
2022/04/25 15:34:22;;;;;;;;;3.25;2.50;;;;;;;;5121370;27;8773;-54
2022/04/25 15:37:07;;;;;;;;;0.50;0.00;;;;;;;;5138474;27;8782;-55
2022/04/25 15:39:51;;;;;;;;;3.00;0.75;;;;;;;;5122231;27;8789;-55
2022/04/25 15:42:37;;;;;;;;;2.50;1.00;;;;;;;;5119580;27;8792;-52
2022/04/25 15:45:22;;;;;;;;;7.00;3.00;;;;;;;;5122693;27;8794;-54
2022/04/25 15:48:06;;;;;;;;;8.25;1.75;;;;;;;;5129735;27;8800;-54
2022/04/25 15:50:51;;;;;;;;;1.75;0.50;;;;;;;;5127920;27;8758;-54
2022/04/25 15:59:40;;;;;;;;;4.00;2.50;;;;;;;;5126488;27;8785;-53
2022/04/25 16:02:25;;;;;;;;;7.00;2.25;;;;;;;;5119219;27;9509;-54
2022/04/25 16:05:10;;;;;;;;;2.00;2.00;;;;;;;;5119121;27;8792;-54
2022/04/25 16:07:54;;;;;;;;;5.25;2.00;;;;;;;;5126302;27;9635;-55
2022/04/25 16:10:40;;;;;;;;;1.00;1.00;;;;;;;;5118877;27;8789;-54
2022/04/25 16:13:25;;;;;;;;;2.50;2.00;;;;;;;;5138333;27;8802;-55
2022/04/25 16:16:10;;;;;;;;;4.00;1.25;;;;;;;;5120811;27;9568;-54
2022/04/25 16:18:55;;;;;;;;;2.25;1.25;;;;;;;;5129385;27;8816;-53
2022/04/25 16:21:39;;;;;;;;;2.00;2.00;;;;;;;;5138200;27;8790;-54
2022/04/25 16:24:23;;;;;;;;;2.50;1.25;;;;;;;;5130569;27;8778;-53
2022/04/25 16:27:08;;;;;;;;;4.75;0.75;;;;;;;;5139404;27;8790;-54
2022/04/25 16:29:52;;;;;;;;;3.00;2.00;;;;;;;;5133738;27;8785;-53
2022/04/25 16:32:36;;;;;;;;;2.00;2.00;;;;;;;;5139036;27;8774;-54
2022/04/25 16:35:23;;;;;;;;;4.00;1.00;;;;;;;;5138094;27;9576;-56
2022/04/25 16:38:09;;;;;;;;;2.00;1.00;;;;;;;;5118587;27;8773;-54
2022/04/25 16:40:53;;;;;;;;;3.50;1.00;;;;;;;;5124130;27;9669;-55
2022/04/25 16:43:37;;;;;;;;;4.50;2.00;;;;;;;;5120119;27;9559;-54
2022/04/25 16:46:22;;;;;;;;;2.25;1.50;;;;;;;;5118362;27;8777;-54
2022/04/25 16:49:06;;;;;;;;;7.50;1.25;;;;;;;;5118218;27;8792;-55
2022/04/25 16:51:54;;;;;;;;;2.50;1.00;;;;;;;;5118185;27;8907;-54
2022/04/25 16:54:38;;;;;;;;;2.25;1.25;;;;;;;;5130701;27;8782;-54
2022/04/25 16:57:22;;;;;;;;;3.50;0.50;;;;;;;;5138403;27;8798;-55
2022/04/25 17:00:07;;;;;;;;;8.25;4.25;;;;;;;;5132436;27;8779;-53
2022/04/25 17:02:51;;;;;;;;;6.75;3.50;;;;;;;;5138665;27;8774;-54
2022/04/25 17:05:35;;;;;;;;;9.50;7.00;;;;;;;;5120792;27;8781;-54
2022/04/25 17:08:20;;;;;;;;;4.75;3.75;;;;;;;;5126408;27;8796;-53
2022/04/25 17:11:04;;;;;;;;;19.00;15.75;;;;;;;;5118063;27;8883;-55
2022/04/25 17:13:49;;;;;;;;;4.00;4.00;;;;;;;;5137790;27;8781;-54
2022/04/25 17:16:33;;;;;;;;;5.75;5.00;;;;;;;;5138164;27;8790;-55
2022/04/25 17:19:18;;;;;;;;;6.25;4.50;;;;;;;;5121533;27;8801;-54
2022/04/25 17:22:02;;;;;;;;;3.00;3.00;;;;;;;;5130022;27;8778;-53
2022/04/25 17:24:46;;;;;;;;;3.50;2.00;;;;;;;;5138135;27;8719;-54
2022/04/25 17:27:31;;;;;;;;;4.25;3.75;;;;;;;;5122610;27;9627;-55
2022/04/25 17:30:15;;;;;;;;;5.50;2.50;;;;;;;;5122848;27;8818;-55
2022/04/25 17:36:05;;;;;;;;;3.75;2.50;;;;;;;;5129265;27;8798;-54
2022/04/25 17:39:32;;;;;;;;;13.25;5.75;;;;;;;;5126839;27;8927;-52
